Varmdo — SMXZ — position and weather

sailwx.info

Track history (hours):
 
Tides and Currents Weather Stations Pressure Air Temp Water Temp Dewpoint Dewpoint Depression Visibility Wind Speed Wind Dir Waves Ship Positions

Varmdo

Last reported at 2014-Sep-17 16:27 UTC. Time now 2014-Sep-17 23:35 UTC.
Position N 59°23' E 018°20'.

Length 38 m; draft 2.5 m.

Type: Passenger vessel. MMSI: 265520390.

Date/timePositionNaut miles runAvg speedWind from/ knotsBaromVisibWave heightAir tempDewpointWater temp
2014-Sep-17 16:27N 59°23' E 018°20'8 9.3
2014-Sep-17 15:32N 59°19' E 018°05'0 0.1
2014-Sep-17 13:04N 59°20' E 018°05'0 0.0
2014-Sep-17 12:31N 59°20' E 018°05'0 0.0
2014-Sep-17 11:13N 59°20' E 018°05'0 0.0
2014-Sep-17 10:31N 59°20' E 018°05'3 0.6
2014-Sep-17 05:33N 59°19' E 018°11'6 0.4
2014-Sep-16 16:26N 59°23' E 018°20'9 9.8
2014-Sep-16 15:33N 59°19' E 018°05'0 0.0
2014-Sep-16 07:26N 59°20' E 018°05'6 2.6
2014-Sep-16 05:17N 59°22' E 018°15'3 0.2
2014-Sep-15 16:27N 59°23' E 018°20'8 9.2
2014-Sep-15 15:32N 59°20' E 018°05'0 0.2
2014-Sep-15 14:30N 59°20' E 018°05'0 0.0
2014-Sep-15 09:27N 59°20' E 018°05'0 0.0
2014-Sep-15 08:30N 59°20' E 018°05'3 1.2
2014-Sep-15 05:33N 59°20' E 018°11'3 0.3
2014-Sep-14 19:32N 59°22' E 018°16'6 6.2
2014-Sep-14 18:31N 59°20' E 018°05'8 6.7
2014-Sep-14 17:24N 59°22' E 018°18'4 0.4
2014-Sep-14 08:25N 59°20' E 018°12'4 4.6
2014-Sep-14 07:32N 59°20' E 018°05'0 0.0
2014-Sep-14 06:32N 59°20' E 018°05'0 0.0
2014-Sep-14 05:32N 59°20' E 018°05'0 0.0
2014-Sep-14 04:32N 59°20' E 018°05'0 0.0
2014-Sep-14 03:29N 59°20' E 018°05'0 0.0
2014-Sep-14 02:32N 59°20' E 018°05'0 0.0
2014-Sep-14 01:32N 59°20' E 018°05'0 0.0
2014-Sep-13 21:32N 59°20' E 018°05'0 0.0
2014-Sep-13 20:32N 59°20' E 018°05'0 0.0
2014-Sep-13 19:32N 59°20' E 018°05'0 0.0
2014-Sep-13 18:32N 59°20' E 018°05'0 0.0
2014-Sep-13 17:32N 59°20' E 018°05'0 0.5
2014-Sep-13 16:30N 59°19' E 018°05'8 0.9
2014-Sep-13 07:13N 59°23' E 018°19'811.9
2014-Sep-13 06:33N 59°19' E 018°05'0 0.3
2014-Sep-13 05:31N 59°20' E 018°04'0 0.0
2014-Sep-13 04:31N 59°20' E 018°04'0 0.0
2014-Sep-13 03:31N 59°20' E 018°04'0 0.0
2014-Sep-13 02:31N 59°20' E 018°04'0 0.0
2014-Sep-13 01:31N 59°20' E 018°04'0 0.0
2014-Sep-13 00:31N 59°20' E 018°04'0 0.0
2014-Sep-12 23:31N 59°20' E 018°04'0 0.0
2014-Sep-12 22:31N 59°20' E 018°04'0 0.0
2014-Sep-12 21:31N 59°20' E 018°04'0 0.0
2014-Sep-12 20:31N 59°20' E 018°04'0 0.0
2014-Sep-12 19:31N 59°20' E 018°04'0 0.0
2014-Sep-12 18:31N 59°20' E 018°04'0 0.0
2014-Sep-12 17:31N 59°20' E 018°04'2 2.4
2014-Sep-12 16:33N 59°19' E 018°09'2 2.1
2014-Sep-12 15:31N 59°20' E 018°05'0 0.0
2014-Sep-12 14:07N 59°20' E 018°05'  
2014-Sep-08 07:30N 59°20' E 018°04'0 0.0
2014-Sep-08 06:06N 59°20' E 018°04'3 5.2
2014-Sep-08 05:33N 59°19' E 018°10'1 0.1
2014-Sep-07 19:23N 59°20' E 018°12'4 4.0
2014-Sep-07 18:22N 59°20' E 018°05'  
Track history (hours):
 
Tides and Currents Weather Stations Pressure Air Temp Water Temp Dewpoint Dewpoint Depression Visibility Wind Speed Wind Dir Waves Ship Positions

Varmdo

Last reported at 2014-Sep-17 16:27 UTC. Time now 2014-Sep-17 23:35 UTC.
Position N 59°23' E 018°20'.

Length 38 m; draft 2.5 m.

Type: Passenger vessel. MMSI: 265520390.

Date/timePositionNaut miles runAvg speedWind from/ knotsBaromVisibWave heightAir tempDewpointWater temp
2014-Sep-17 16:27N 59°23' E 018°20'8 9.3
2014-Sep-17 15:32N 59°19' E 018°05'0 0.1
2014-Sep-17 13:04N 59°20' E 018°05'0 0.0
2014-Sep-17 12:31N 59°20' E 018°05'0 0.0
2014-Sep-17 11:13N 59°20' E 018°05'0 0.0
2014-Sep-17 10:31N 59°20' E 018°05'3 0.6
2014-Sep-17 05:33N 59°19' E 018°11'6 0.4
2014-Sep-16 16:26N 59°23' E 018°20'9 9.8
2014-Sep-16 15:33N 59°19' E 018°05'0 0.0
2014-Sep-16 07:26N 59°20' E 018°05'6 2.6
2014-Sep-16 05:17N 59°22' E 018°15'3 0.2
2014-Sep-15 16:27N 59°23' E 018°20'8 9.2
2014-Sep-15 15:32N 59°20' E 018°05'0 0.2
2014-Sep-15 14:30N 59°20' E 018°05'0 0.0
2014-Sep-15 09:27N 59°20' E 018°05'0 0.0
2014-Sep-15 08:30N 59°20' E 018°05'3 1.2
2014-Sep-15 05:33N 59°20' E 018°11'3 0.3
2014-Sep-14 19:32N 59°22' E 018°16'6 6.2
2014-Sep-14 18:31N 59°20' E 018°05'8 6.7
2014-Sep-14 17:24N 59°22' E 018°18'4 0.4
2014-Sep-14 08:25N 59°20' E 018°12'4 4.6
2014-Sep-14 07:32N 59°20' E 018°05'0 0.0
2014-Sep-14 06:32N 59°20' E 018°05'0 0.0
2014-Sep-14 05:32N 59°20' E 018°05'0 0.0
2014-Sep-14 04:32N 59°20' E 018°05'0 0.0
2014-Sep-14 03:29N 59°20' E 018°05'0 0.0
2014-Sep-14 02:32N 59°20' E 018°05'0 0.0
2014-Sep-14 01:32N 59°20' E 018°05'0 0.0
2014-Sep-13 21:32N 59°20' E 018°05'0 0.0
2014-Sep-13 20:32N 59°20' E 018°05'0 0.0
2014-Sep-13 19:32N 59°20' E 018°05'0 0.0
2014-Sep-13 18:32N 59°20' E 018°05'0 0.0
2014-Sep-13 17:32N 59°20' E 018°05'0 0.5
2014-Sep-13 16:30N 59°19' E 018°05'8 0.9
2014-Sep-13 07:13N 59°23' E 018°19'811.9
2014-Sep-13 06:33N 59°19' E 018°05'0 0.3
2014-Sep-13 05:31N 59°20' E 018°04'0 0.0
2014-Sep-13 04:31N 59°20' E 018°04'0 0.0
2014-Sep-13 03:31N 59°20' E 018°04'0 0.0
2014-Sep-13 02:31N 59°20' E 018°04'0 0.0
2014-Sep-13 01:31N 59°20' E 018°04'0 0.0
2014-Sep-13 00:31N 59°20' E 018°04'0 0.0
2014-Sep-12 23:31N 59°20' E 018°04'0 0.0
2014-Sep-12 22:31N 59°20' E 018°04'0 0.0
2014-Sep-12 21:31N 59°20' E 018°04'0 0.0
2014-Sep-12 20:31N 59°20' E 018°04'0 0.0
2014-Sep-12 19:31N 59°20' E 018°04'0 0.0
2014-Sep-12 18:31N 59°20' E 018°04'0 0.0
2014-Sep-12 17:31N 59°20' E 018°04'2 2.4
2014-Sep-12 16:33N 59°19' E 018°09'2 2.1
2014-Sep-12 15:31N 59°20' E 018°05'0 0.0
2014-Sep-12 14:07N 59°20' E 018°05'  
2014-Sep-08 07:30N 59°20' E 018°04'0 0.0
2014-Sep-08 06:06N 59°20' E 018°04'3 5.2
2014-Sep-08 05:33N 59°19' E 018°10'1 0.1
2014-Sep-07 19:23N 59°20' E 018°12'4 4.0
2014-Sep-07 18:22N 59°20' E 018°05'  

Dump ship's entire track history